createdAt,value
2022-08-26T00:04:22.118Z,9.15
2022-08-26T00:06:49.242Z,8.43
2022-08-26T00:09:16.865Z,9.95
2022-08-26T00:11:44.883Z,13.40
2022-08-26T00:14:13.729Z,7.82
2022-08-26T00:16:47.627Z,9.55
2022-08-26T00:19:20.491Z,7.93
2022-08-26T00:21:49.615Z,6.90
2022-08-26T00:24:19.758Z,14.57
2022-08-26T00:26:47.034Z,8.45
2022-08-26T00:29:14.233Z,10.43
2022-08-26T00:31:42.260Z,10.25
2022-08-26T00:34:11.286Z,8.63
2022-08-26T00:36:39.735Z,6.70
2022-08-26T00:39:08.706Z,11.05
2022-08-26T00:41:39.174Z,7.45
2022-08-26T00:44:06.721Z,8.63
2022-08-26T00:46:37.063Z,9.10
2022-08-26T00:49:13.409Z,9.25
2022-08-26T00:51:47.919Z,12.48
2022-08-26T00:54:16.381Z,10.95
2022-08-26T00:57:05.547Z,9.68
2022-08-26T00:59:45.273Z,8.48
2022-08-26T01:02:20.144Z,15.57
2022-08-26T01:04:55.663Z,20.23
2022-08-26T01:07:26.143Z,7.88
2022-08-26T01:09:53.487Z,9.23
2022-08-26T01:12:22.154Z,8.15
2022-08-26T01:14:50.054Z,9.38
2022-08-26T01:17:18.331Z,7.80
2022-08-26T01:19:50.931Z,14.18
2022-08-26T01:22:28.223Z,8.40
2022-08-26T01:25:00.675Z,12.77
2022-08-26T01:27:32.961Z,10.38
2022-08-26T01:30:01.601Z,9.73
2022-08-26T01:32:31.371Z,7.00
2022-08-26T01:34:59.099Z,10.52
2022-08-26T01:37:29.273Z,7.93
2022-08-26T01:39:56.863Z,13.18
2022-08-26T01:42:25.840Z,10.15
2022-08-26T01:44:57.780Z,8.75
2022-08-26T01:47:27.826Z,7.43
2022-08-26T01:50:01.224Z,10.13
2022-08-26T01:52:33.205Z,8.45
2022-08-26T01:55:01.436Z,12.13
2022-08-26T01:57:29.271Z,13.13
2022-08-26T01:59:59.634Z,7.97
2022-08-26T02:02:27.412Z,9.27
2022-08-26T02:04:59.686Z,9.90
2022-08-26T02:07:28.039Z,10.77
2022-08-26T02:09:55.484Z,9.35
2022-08-26T02:12:23.051Z,8.38
2022-08-26T02:14:54.075Z,14.02
2022-08-26T02:17:26.163Z,11.18
2022-08-26T02:19:53.621Z,12.57
2022-08-26T02:22:24.517Z,12.57
2022-08-26T02:24:53.530Z,9.98
2022-08-26T02:27:32.457Z,14.23
2022-08-26T02:30:11.858Z,12.80
2022-08-26T02:32:40.224Z,12.45
2022-08-26T02:35:10.190Z,16.15
2022-08-26T02:37:37.499Z,13.38
2022-08-26T02:40:07.915Z,17.70
2022-08-26T02:42:35.930Z,16.63
2022-08-26T02:45:05.917Z,16.35
2022-08-26T02:47:34.482Z,11.32
2022-08-26T02:50:01.854Z,12.68
2022-08-26T02:52:29.027Z,14.60
2022-08-26T02:54:56.089Z,13.93
2022-08-26T02:57:23.329Z,13.15
2022-08-26T02:59:51.386Z,13.00
2022-08-26T03:02:18.480Z,14.38
2022-08-26T03:04:57.694Z,13.73
2022-08-26T03:07:29.812Z,10.18
2022-08-26T03:09:57.999Z,10.60
2022-08-26T03:12:25.806Z,11.07
2022-08-26T03:14:53.112Z,9.55
2022-08-26T03:17:21.064Z,8.85
2022-08-26T03:19:51.751Z,9.95
2022-08-26T03:22:21.484Z,17.13
2022-08-26T03:24:49.937Z,21.63
2022-08-26T03:27:17.261Z,15.98
2022-08-26T03:30:03.217Z,16.35
2022-08-26T03:32:30.589Z,21.90
2022-08-26T03:34:57.843Z,22.42
2022-08-26T03:37:25.353Z,17.23
2022-08-26T03:39:53.009Z,18.35
2022-08-26T03:42:22.080Z,12.70
2022-08-26T03:44:49.456Z,17.15
2022-08-26T03:47:17.123Z,18.77
2022-08-26T03:49:44.352Z,28.10
2022-08-26T03:52:12.253Z,15.63
2022-08-26T03:54:41.092Z,19.05
2022-08-26T03:57:10.630Z,14.45
2022-08-26T03:59:37.670Z,12.88
2022-08-26T04:02:11.665Z,18.98
2022-08-26T04:04:39.730Z,16.17
2022-08-26T04:07:07.345Z,18.77
2022-08-26T04:09:35.351Z,17.00
2022-08-26T04:12:03.561Z,12.95
2022-08-26T04:14:32.089Z,18.02
2022-08-26T04:16:59.471Z,13.70
2022-08-26T04:19:26.661Z,15.20
2022-08-26T04:21:54.466Z,20.42
2022-08-26T04:24:23.765Z,16.75
2022-08-26T04:26:51.205Z,17.33
2022-08-26T04:29:23.919Z,22.92
2022-08-26T04:31:55.233Z,15.93
2022-08-26T04:34:24.537Z,14.98
2022-08-26T04:36:54.629Z,13.18
2022-08-26T04:39:22.839Z,16.17
2022-08-26T04:41:50.761Z,16.52
2022-08-26T04:44:18.574Z,16.58
2022-08-26T04:46:45.731Z,13.27
2022-08-26T04:49:13.913Z,15.88
2022-08-26T04:51:40.949Z,16.23
2022-08-26T04:54:08.581Z,12.45
2022-08-26T04:56:41.320Z,15.02
2022-08-26T04:59:17.187Z,14.93
2022-08-26T05:01:48.606Z,11.80
2022-08-26T05:04:18.921Z,14.45
2022-08-26T05:06:50.223Z,17.55
2022-08-26T05:09:20.899Z,18.30
2022-08-26T05:11:52.377Z,18.20
2022-08-26T05:14:23.057Z,17.73
2022-08-26T05:16:50.490Z,15.20
2022-08-26T05:19:19.252Z,12.57
2022-08-26T05:21:48.465Z,18.02
2022-08-26T05:24:16.087Z,13.48
2022-08-26T05:26:44.638Z,14.55
2022-08-26T05:29:12.790Z,13.80
2022-08-26T05:31:40.017Z,16.00
2022-08-26T05:34:07.462Z,15.65
2022-08-26T05:36:36.229Z,12.10
2022-08-26T05:39:05.900Z,15.50
2022-08-26T05:41:38.545Z,20.20
2022-08-26T05:44:09.337Z,14.63
2022-08-26T05:46:37.971Z,14.30
2022-08-26T05:49:12.827Z,16.08
2022-08-26T05:51:42.188Z,20.52
2022-08-26T05:54:10.337Z,13.95
2022-08-26T05:56:38.765Z,12.82
2022-08-26T05:59:06.409Z,17.10
2022-08-26T06:01:42.424Z,19.15
2022-08-26T06:04:10.024Z,12.27
2022-08-26T06:06:41.244Z,13.20
2022-08-26T06:09:11.154Z,16.77
2022-08-26T06:11:39.625Z,15.98
2022-08-26T06:14:08.237Z,18.73
2022-08-26T06:16:38.591Z,14.73
2022-08-26T06:19:10.857Z,23.08
2022-08-26T06:21:41.435Z,12.32
2022-08-26T06:24:30.499Z,18.77
2022-08-26T06:27:04.172Z,14.98
2022-08-26T06:29:33.501Z,12.20
2022-08-26T06:32:02.603Z,18.17
2022-08-26T06:34:30.815Z,13.50
2022-08-26T06:37:02.524Z,16.48
2022-08-26T06:39:30.605Z,19.27
2022-08-26T06:41:59.418Z,19.73
2022-08-26T06:44:27.335Z,24.50
2022-08-26T06:46:54.795Z,28.52
2022-08-26T06:49:26.968Z,22.88
2022-08-26T06:51:58.429Z,25.30
2022-08-26T06:54:27.449Z,30.52
2022-08-26T06:56:56.711Z,69.38
2022-08-26T06:59:24.948Z,78.95
2022-08-26T07:01:52.437Z,84.85
2022-08-26T07:04:23.055Z,77.47
2022-08-26T07:06:53.347Z,81.65
2022-08-26T07:09:23.318Z,88.63
2022-08-26T07:11:51.764Z,85.00
2022-08-26T07:14:21.626Z,87.95
2022-08-26T07:16:50.326Z,80.57
2022-08-26T07:19:30.353Z,86.70
2022-08-26T07:22:02.112Z,85.13
2022-08-26T07:24:29.715Z,87.80
2022-08-26T07:27:02.008Z,88.72
2022-08-26T07:29:30.748Z,88.97
2022-08-26T07:31:58.132Z,98.20
2022-08-26T07:34:25.294Z,85.63
2022-08-26T07:36:53.735Z,80.88
2022-08-26T07:39:22.512Z,79.72
2022-08-26T07:41:49.910Z,90.93
2022-08-26T07:44:17.251Z,88.72
2022-08-26T07:46:52.336Z,83.78
2022-08-26T07:49:23.890Z,88.68
2022-08-26T07:51:51.435Z,98.47
2022-08-26T07:54:19.167Z,89.82
2022-08-26T07:56:48.513Z,87.90
2022-08-26T07:59:17.574Z,84.45
2022-08-26T08:01:45.754Z,80.35
2022-08-26T08:04:14.506Z,81.07
2022-08-26T08:06:43.856Z,85.90
2022-08-26T08:09:13.637Z,83.70
2022-08-26T08:11:41.407Z,97.85
2022-08-26T08:14:11.848Z,85.93
2022-08-26T08:16:41.516Z,83.25
2022-08-26T08:19:14.054Z,92.47
2022-08-26T08:21:43.121Z,83.47
2022-08-26T08:24:11.239Z,84.40
2022-08-26T08:26:39.213Z,80.20
2022-08-26T08:29:08.683Z,87.75
2022-08-26T08:31:58.036Z,84.60
2022-08-26T08:34:28.538Z,82.95
2022-08-26T08:36:57.126Z,79.38
2022-08-26T08:39:25.512Z,84.43
2022-08-26T08:42:11.101Z,78.03
2022-08-26T08:44:44.183Z,75.57
2022-08-26T08:47:34.413Z,78.97
2022-08-26T08:50:26.122Z,82.38
2022-08-26T08:53:12.023Z,82.68
2022-08-26T08:55:48.096Z,79.50
2022-08-26T08:58:19.732Z,78.88
2022-08-26T09:00:54.177Z,88.63
2022-08-26T09:03:31.012Z,74.85
2022-08-26T09:06:00.243Z,79.72
2022-08-26T09:08:35.688Z,82.80
2022-08-26T09:11:04.305Z,81.60
2022-08-26T09:13:31.760Z,85.88
2022-08-26T09:16:15.612Z,84.95
2022-08-26T09:19:03.843Z,80.38
2022-08-26T09:21:31.980Z,81.63
2022-08-26T09:23:59.871Z,77.43
2022-08-26T09:26:52.482Z,86.25
2022-08-26T09:29:29.300Z,85.43
2022-08-26T09:32:24.258Z,79.15
2022-08-26T09:35:02.648Z,81.10
2022-08-26T09:40:19.268Z,86.03
2022-08-26T09:42:48.192Z,82.40
2022-08-26T09:45:15.455Z,83.88
2022-08-26T09:47:47.076Z,89.35
2022-08-26T09:50:36.031Z,79.75
2022-08-26T09:53:12.837Z,85.13
2022-08-26T09:55:48.658Z,85.13
2022-08-26T09:58:33.154Z,92.30
2022-08-26T10:01:03.170Z,82.25
2022-08-26T10:03:35.207Z,67.10
2022-08-26T10:06:20.917Z,82.97
2022-08-26T10:08:55.442Z,82.80
2022-08-26T10:11:53.385Z,79.15
2022-08-26T10:14:37.083Z,81.70
2022-08-26T10:17:22.346Z,71.90
2022-08-26T10:19:59.429Z,73.60
2022-08-26T10:22:43.275Z,65.20
2022-08-26T10:25:20.155Z,63.97
2022-08-26T10:27:57.738Z,68.53
2022-08-26T10:30:34.746Z,67.03
2022-08-26T10:33:07.618Z,69.75
2022-08-26T10:35:40.155Z,65.78
2022-08-26T10:38:16.842Z,62.88
2022-08-26T10:40:58.528Z,68.82
2022-08-26T10:43:29.614Z,70.53
2022-08-26T10:46:04.958Z,58.85
2022-08-26T10:48:49.345Z,55.08
2022-08-26T10:51:26.698Z,56.35
2022-08-26T10:54:01.453Z,60.35
2022-08-26T10:56:42.553Z,56.55
2022-08-26T10:59:46.787Z,64.22
2022-08-26T11:02:26.795Z,56.13
2022-08-26T11:05:03.785Z,49.60
2022-08-26T11:07:35.291Z,45.97
2022-08-26T11:10:25.551Z,56.67
2022-08-26T11:13:03.763Z,52.88
2022-08-26T11:15:31.380Z,41.90
2022-08-26T11:18:07.678Z,55.97
2022-08-26T11:20:45.512Z,52.85
2022-08-26T11:23:13.155Z,46.67
2022-08-26T11:26:05.272Z,46.58
2022-08-26T11:28:38.530Z,44.88
2022-08-26T11:31:10.569Z,51.58
2022-08-26T11:33:47.396Z,46.45
2022-08-26T11:36:34.818Z,44.03
2022-08-26T11:39:04.043Z,43.58
2022-08-26T11:41:33.476Z,42.63
2022-08-26T11:44:02.253Z,45.88
2022-08-26T11:46:31.354Z,41.03
2022-08-26T11:49:07.195Z,48.75
2022-08-26T11:51:40.380Z,44.67
2022-08-26T11:54:11.500Z,38.40
2022-08-26T11:56:40.492Z,42.58
2022-08-26T11:59:15.385Z,38.38
2022-08-26T12:01:45.877Z,40.38
2022-08-26T12:04:31.164Z,42.17
2022-08-26T12:07:00.559Z,46.35
2022-08-26T12:09:34.459Z,45.63
2022-08-26T12:12:21.711Z,41.28
2022-08-26T12:14:48.842Z,38.25
2022-08-26T12:17:27.269Z,40.92
2022-08-26T12:19:54.432Z,44.78
2022-08-26T12:22:27.280Z,34.28
2022-08-26T12:24:56.214Z,40.60
2022-08-26T12:27:27.184Z,39.08
2022-08-26T12:30:04.361Z,36.10
2022-08-26T12:32:35.197Z,29.85
2022-08-26T12:37:41.116Z,37.72
2022-08-26T12:40:35.324Z,37.90
2022-08-26T12:43:04.797Z,39.20
2022-08-26T12:45:44.030Z,37.70
2022-08-26T12:48:20.614Z,35.47
2022-08-26T12:50:52.266Z,40.53
2022-08-26T12:53:28.638Z,40.72
2022-08-26T12:55:58.815Z,40.63
2022-08-26T12:58:31.545Z,40.78
2022-08-26T13:01:04.786Z,37.83
2022-08-26T13:03:34.643Z,32.10
2022-08-26T13:06:20.739Z,37.35
2022-08-26T13:08:53.034Z,35.20
2022-08-26T13:13:53.488Z,46.15
2022-08-26T13:16:22.218Z,40.23
2022-08-26T13:18:52.976Z,40.47
2022-08-26T13:21:24.174Z,30.35
2022-08-26T13:23:52.059Z,35.50
2022-08-26T13:26:19.267Z,36.67
2022-08-26T13:28:53.273Z,39.58
2022-08-26T13:31:31.294Z,43.33
2022-08-26T13:33:58.971Z,35.58
2022-08-26T13:36:35.479Z,33.03
2022-08-26T13:39:05.385Z,44.00
2022-08-26T13:41:33.638Z,36.53
2022-08-26T13:44:00.793Z,36.05
2022-08-26T13:46:28.912Z,41.95
2022-08-26T13:48:57.755Z,40.75
2022-08-26T13:51:26.732Z,44.95
2022-08-26T13:53:54.638Z,38.05
2022-08-26T13:56:46.930Z,39.30
2022-08-26T13:59:13.978Z,33.47
2022-08-26T14:01:41.133Z,40.63
2022-08-26T14:04:08.583Z,38.65
2022-08-26T14:06:35.769Z,33.45
2022-08-26T14:09:03.115Z,34.00
2022-08-26T14:11:41.179Z,36.60
2022-08-26T14:14:17.316Z,35.80
2022-08-26T14:16:51.268Z,32.75
2022-08-26T14:19:26.459Z,31.05
2022-08-26T14:21:53.698Z,32.97
2022-08-26T14:24:20.707Z,25.77
2022-08-26T14:26:48.472Z,33.45
2022-08-26T14:29:16.780Z,29.60
2022-08-26T14:31:44.626Z,24.50
2022-08-26T14:34:13.693Z,27.92
2022-08-26T14:36:40.925Z,28.60
2022-08-26T14:39:11.748Z,26.52
2022-08-26T14:41:45.835Z,26.42
2022-08-26T14:46:52.437Z,20.33
2022-08-26T14:49:21.375Z,20.60
2022-08-26T14:51:48.687Z,25.73
2022-08-26T14:54:17.309Z,18.52
2022-08-26T14:56:51.149Z,15.18
2022-08-26T14:59:23.253Z,19.60
2022-08-26T15:01:50.764Z,16.00
2022-08-26T15:04:18.774Z,14.55
2022-08-26T15:06:46.283Z,15.80
2022-08-26T15:09:14.850Z,21.40
2022-08-26T15:11:42.128Z,15.05
2022-08-26T15:14:19.697Z,15.80
2022-08-26T15:16:48.867Z,15.00
2022-08-26T15:19:16.770Z,18.70
2022-08-26T15:21:45.523Z,17.20
2022-08-26T15:24:14.613Z,16.52
2022-08-26T15:26:43.253Z,22.05
2022-08-26T15:29:10.407Z,20.40
2022-08-26T15:31:37.508Z,15.30
2022-08-26T15:34:08.031Z,18.42
2022-08-26T15:36:37.699Z,17.02
2022-08-26T15:39:06.815Z,17.15
2022-08-26T15:41:35.018Z,18.67
2022-08-26T15:44:03.710Z,23.98
2022-08-26T15:46:31.633Z,18.48
2022-08-26T15:48:59.025Z,17.08
2022-08-26T15:51:29.284Z,17.88
2022-08-26T15:53:57.117Z,17.50
2022-08-26T15:56:29.084Z,26.35
2022-08-26T16:01:27.320Z,14.20
2022-08-26T16:03:56.579Z,14.43
2022-08-26T16:06:31.295Z,18.80
2022-08-26T16:08:58.468Z,22.40
2022-08-26T16:11:25.949Z,19.42
2022-08-26T16:13:53.273Z,17.92
2022-08-26T16:16:21.372Z,15.20
2022-08-26T16:18:49.540Z,16.63
2022-08-26T16:21:19.429Z,15.25
2022-08-26T16:23:47.451Z,15.55
2022-08-26T16:26:18.877Z,15.23
2022-08-26T16:28:47.342Z,14.57
2022-08-26T16:31:15.646Z,17.40
2022-08-26T16:33:43.411Z,20.75
2022-08-26T16:36:11.239Z,12.80
2022-08-26T16:38:41.237Z,16.85
2022-08-26T16:41:08.669Z,15.05
2022-08-26T16:43:35.829Z,13.20
2022-08-26T16:46:05.981Z,14.07
2022-08-26T16:48:33.527Z,12.10
2022-08-26T16:51:00.673Z,12.55
2022-08-26T16:53:27.793Z,12.85
2022-08-26T16:55:55.313Z,9.40
2022-08-26T16:58:22.561Z,12.30
2022-08-26T17:00:49.694Z,15.82
2022-08-26T17:03:17.049Z,12.63
2022-08-26T17:05:44.477Z,17.40
2022-08-26T17:08:11.996Z,13.88
2022-08-26T17:10:39.484Z,16.90
2022-08-26T17:13:06.594Z,10.57
2022-08-26T17:15:33.730Z,11.10
2022-08-26T17:18:00.819Z,10.80
2022-08-26T17:20:27.911Z,11.93
2022-08-26T17:22:55.806Z,14.10
2022-08-26T17:25:29.239Z,14.68
2022-08-26T17:30:29.719Z,17.58
2022-08-26T17:32:58.247Z,9.40
2022-08-26T17:35:27.727Z,10.20
2022-08-26T17:37:56.097Z,11.85
2022-08-26T17:40:25.642Z,10.05
2022-08-26T17:42:53.026Z,15.63
2022-08-26T17:47:54.604Z,10.50
2022-08-26T17:50:22.246Z,12.18
2022-08-26T17:52:49.720Z,13.70
2022-08-26T17:55:18.533Z,13.48
2022-08-26T17:57:53.290Z,9.38
2022-08-26T18:00:26.246Z,13.75
2022-08-26T18:05:23.656Z,12.25
2022-08-26T18:07:51.394Z,14.23
2022-08-26T18:10:20.386Z,13.30
2022-08-26T18:12:48.304Z,11.95
2022-08-26T18:15:16.930Z,9.57
2022-08-26T18:17:44.118Z,9.30
2022-08-26T18:20:17.433Z,14.65
2022-08-26T18:22:46.631Z,15.32
2022-08-26T18:25:14.707Z,14.20
2022-08-26T18:27:41.827Z,11.23
2022-08-26T18:30:16.411Z,10.32
2022-08-26T18:32:44.307Z,14.90
2022-08-26T18:35:12.389Z,13.43
2022-08-26T18:37:39.973Z,11.55
2022-08-26T18:40:09.463Z,9.75
2022-08-26T18:42:36.865Z,10.82
2022-08-26T18:45:06.111Z,14.23
2022-08-26T18:47:34.405Z,14.65
2022-08-26T18:50:04.478Z,10.63
2022-08-26T18:52:32.179Z,13.43
2022-08-26T18:54:59.466Z,9.10
2022-08-26T18:57:26.573Z,9.35
2022-08-26T18:59:53.739Z,13.02
2022-08-26T19:02:21.136Z,9.35
2022-08-26T19:04:48.314Z,10.98
2022-08-26T19:07:15.532Z,9.93
2022-08-26T19:09:42.694Z,7.50
2022-08-26T19:12:09.848Z,8.25
2022-08-26T19:14:36.989Z,9.90
2022-08-26T19:17:04.890Z,14.52
2022-08-26T19:19:32.313Z,13.60
2022-08-26T19:21:59.582Z,13.80
2022-08-26T19:24:28.331Z,14.50
2022-08-26T19:26:58.726Z,11.00
2022-08-26T19:29:28.801Z,15.63
2022-08-26T19:31:56.510Z,11.25
2022-08-26T19:34:24.097Z,9.70
2022-08-26T19:36:53.119Z,11.85
2022-08-26T19:39:21.202Z,10.02
2022-08-26T19:41:48.912Z,17.40
2022-08-26T19:44:38.211Z,15.00
2022-08-26T19:47:07.551Z,12.52
2022-08-26T19:49:35.130Z,12.55
2022-08-26T19:52:03.026Z,7.50
2022-08-26T19:54:30.455Z,9.30
2022-08-26T19:56:57.499Z,8.35
2022-08-26T19:59:24.631Z,12.00
2022-08-26T20:02:01.187Z,11.75
2022-08-26T20:04:32.341Z,8.48
2022-08-26T20:07:01.058Z,14.48
2022-08-26T20:09:29.662Z,14.85
2022-08-26T20:11:57.365Z,8.77
2022-08-26T20:14:26.765Z,13.18
2022-08-26T20:16:54.074Z,10.13
2022-08-26T20:19:40.879Z,12.65
2022-08-26T20:22:08.469Z,9.25
2022-08-26T20:24:35.609Z,13.48
2022-08-26T20:27:07.698Z,9.55
2022-08-26T20:29:36.716Z,12.15
2022-08-26T20:32:05.989Z,15.77
2022-08-26T20:34:34.524Z,12.30
2022-08-26T20:37:02.354Z,9.20
2022-08-26T20:39:29.769Z,10.73
2022-08-26T20:41:57.475Z,13.80
2022-08-26T20:44:25.562Z,10.15
2022-08-26T20:46:53.070Z,11.02
2022-08-26T20:49:20.179Z,12.57
2022-08-26T20:51:50.697Z,9.38
2022-08-26T20:54:19.404Z,17.17
2022-08-26T20:56:46.752Z,8.48
2022-08-26T20:59:14.724Z,11.73
2022-08-26T21:01:42.717Z,11.52
2022-08-26T21:04:15.794Z,17.75
2022-08-26T21:06:49.413Z,10.88
2022-08-26T21:09:24.878Z,14.10
2022-08-26T21:11:52.952Z,23.98
2022-08-26T21:14:23.141Z,14.10
2022-08-26T21:16:53.273Z,10.27
2022-08-26T21:19:20.504Z,13.02
2022-08-26T21:21:49.263Z,17.48
2022-08-26T21:24:16.875Z,24.42
2022-08-26T21:26:44.380Z,14.27
2022-08-26T21:29:13.480Z,17.52
2022-08-26T21:31:46.013Z,18.55
2022-08-26T21:34:16.930Z,15.63
2022-08-26T21:36:48.476Z,17.60
2022-08-26T21:39:16.701Z,16.05
2022-08-26T21:41:44.566Z,16.42
2022-08-26T21:44:13.852Z,18.85
2022-08-26T21:46:41.425Z,20.98
2022-08-26T21:49:11.571Z,20.40
2022-08-26T21:51:42.734Z,23.85
2022-08-26T21:54:11.319Z,19.58
2022-08-26T21:56:44.001Z,20.10
2022-08-26T21:59:12.189Z,23.55
2022-08-26T22:01:39.538Z,18.42
2022-08-26T22:04:08.688Z,16.30
2022-08-26T22:06:44.118Z,18.60
2022-08-26T22:09:12.526Z,18.33
2022-08-26T22:11:39.773Z,17.92
2022-08-26T22:14:06.908Z,22.13
2022-08-26T22:16:34.129Z,21.17
2022-08-26T22:19:01.279Z,19.90
2022-08-26T22:21:28.438Z,14.27
2022-08-26T22:23:58.540Z,16.50
2022-08-26T22:26:29.471Z,17.60
2022-08-26T22:28:59.025Z,14.70
2022-08-26T22:31:38.035Z,23.15
2022-08-26T22:34:09.657Z,20.38
2022-08-26T22:36:43.693Z,19.55
2022-08-26T22:39:13.338Z,17.48
2022-08-26T22:41:42.879Z,16.85
2022-08-26T22:44:11.803Z,16.27
2022-08-26T22:46:39.806Z,18.48
2022-08-26T22:49:08.753Z,17.00
2022-08-26T22:51:35.843Z,19.13
2022-08-26T22:54:03.547Z,18.10
2022-08-26T22:56:30.577Z,25.90
2022-08-26T22:58:57.618Z,14.65
2022-08-26T23:01:24.752Z,18.67
2022-08-26T23:03:51.889Z,12.82
2022-08-26T23:06:19.063Z,13.70
2022-08-26T23:08:46.993Z,15.23
2022-08-26T23:11:14.879Z,16.60
2022-08-26T23:13:42.341Z,16.27
2022-08-26T23:16:11.572Z,14.00
2022-08-26T23:18:40.631Z,18.42
2022-08-26T23:21:08.917Z,14.65
2022-08-26T23:23:37.319Z,20.35
2022-08-26T23:26:06.325Z,15.13
2022-08-26T23:28:35.189Z,10.07
2022-08-26T23:31:02.222Z,12.80
2022-08-26T23:33:49.273Z,14.68
2022-08-26T23:36:18.348Z,14.13
2022-08-26T23:38:53.074Z,10.43
2022-08-26T23:41:22.644Z,12.52
2022-08-26T23:43:51.461Z,10.80
2022-08-26T23:46:19.504Z,14.27
2022-08-26T23:48:47.458Z,11.40
2022-08-26T23:51:33.474Z,15.98
2022-08-26T23:54:00.743Z,9.30
2022-08-26T23:56:29.045Z,14.95
2022-08-26T23:58:56.533Z,14.30
